Time;durP1;ratioP1;P1;durP2;ratioP2;P2;SDS_P1;SDS_P2;PMS_P1;PMS_P2;Temp;Humidity;BMP_temperature;BMP_pressure;BME280_temperature;BME280_humidity;BME280_pressure;Samples;Min_cycle;Max_cycle;Signal;HPM_P1;HPM_P2
2022/07/12 00:02:20;;;;;;;2.70;1.75;;;20.60;62.60;;;;;;5051310;28;20099;-72
2022/07/12 00:04:47;;;;;;;2.08;1.77;;;20.70;65.00;;;;;;5050176;28;20057;-72
2022/07/12 00:07:14;;;;;;;1.80;1.58;;;20.60;62.60;;;;;;5050431;28;20136;-72
2022/07/12 00:09:40;;;;;;;2.20;1.70;;;20.50;63.00;;;;;;5050286;28;20412;-72
2022/07/12 00:12:07;;;;;;;3.92;1.90;;;20.60;62.60;;;;;;5049785;28;20047;-72
2022/07/12 00:14:34;;;;;;;1.92;1.70;;;20.60;63.10;;;;;;5049871;28;20092;-72
2022/07/12 00:17:02;;;;;;;2.08;1.88;;;20.60;62.60;;;;;;5049993;28;20516;-72
2022/07/12 00:19:30;;;;;;;2.13;1.70;;;20.60;62.60;;;;;;5049597;28;20064;-72
2022/07/12 00:21:57;;;;;;;2.20;1.90;;;20.60;62.60;;;;;;5051154;28;20041;-72
2022/07/12 00:24:24;;;;;;;2.00;1.70;;;20.60;62.60;;;;;;5050928;28;20338;-72
2022/07/12 00:26:52;;;;;;;2.05;1.83;;;20.60;65.00;;;;;;5051471;28;20132;-72
2022/07/12 00:29:19;;;;;;;2.40;1.70;;;20.60;62.60;;;;;;5049334;28;20053;-72
2022/07/12 00:31:45;;;;;;;1.70;1.60;;;20.80;62.70;;;;;;5050749;28;20071;-72
2022/07/12 00:34:12;;;;;;;2.10;1.90;;;20.60;62.60;;;;;;5049544;28;20128;-72
2022/07/12 00:36:40;;;;;;;1.90;1.70;;;20.60;62.60;;;;;;5049599;28;20136;-72
2022/07/12 00:39:07;;;;;;;2.85;2.08;;;20.60;62.60;;;;;;5049787;28;20535;-72
2022/07/12 00:41:33;;;;;;;2.30;1.80;;;20.60;62.60;;;;;;5049358;28;20045;-72
2022/07/12 00:44:00;;;;;;;1.63;1.52;;;20.60;62.60;;;;;;5050454;28;20124;-72
2022/07/12 00:46:27;;;;;;;2.78;2.05;;;20.60;62.50;;;;;;5049581;28;20139;-72
2022/07/12 00:48:54;;;;;;;2.65;2.00;;;20.00;64.80;;;;;;5049670;28;20131;-72
2022/07/12 00:51:21;;;;;;;3.38;2.05;;;20.60;62.50;;;;;;5049299;28;20703;-72
2022/07/12 00:53:49;;;;;;;2.00;1.60;;;20.60;62.50;;;;;;5049285;28;20136;-72
2022/07/12 00:56:15;;;;;;;2.22;2.03;;;20.60;62.50;;;;;;5048792;28;20077;-72
2022/07/12 00:58:42;;;;;;;1.95;1.75;;;20.60;62.50;;;;;;5049277;28;20053;-72
2022/07/12 01:01:09;;;;;;;2.00;1.80;;;20.50;64.20;;;;;;5048911;28;20557;-72
2022/07/12 01:03:36;;;;;;;1.90;1.70;;;20.60;62.50;;;;;;5048697;28;20059;-72
2022/07/12 01:06:03;;;;;;;2.50;2.08;;;20.60;62.50;;;;;;5049329;28;20053;-72
2022/07/12 01:08:30;;;;;;;2.05;1.80;;;20.60;62.50;;;;;;5049238;28;20062;-72
2022/07/12 01:10:58;;;;;;;2.42;1.88;;;20.50;64.30;;;;;;5048982;28;20053;-72
2022/07/12 01:13:25;;;;;;;2.47;2.10;;;20.50;62.50;;;;;;5048268;28;20148;-72
2022/07/12 01:15:52;;;;;;;2.00;1.73;;;20.60;64.70;;;;;;5048995;28;20132;-72
2022/07/12 01:18:18;;;;;;;2.15;1.92;;;20.50;62.50;;;;;;5048948;28;20068;-72
2022/07/12 01:20:45;;;;;;;2.30;2.10;;;20.60;62.50;;;;;;5048906;28;20059;-72
2022/07/12 01:23:13;;;;;;;2.60;1.95;;;20.50;62.50;;;;;;5048710;28;20048;-72
2022/07/12 01:25:40;;;;;;;2.25;2.05;;;20.50;62.50;;;;;;5048849;28;20048;-72
2022/07/12 01:28:07;;;;;;;2.10;1.80;;;20.50;62.50;;;;;;5050015;28;20057;-72
2022/07/12 01:30:33;;;;;;;2.67;2.20;;;20.50;62.50;;;;;;5048791;28;20144;-72
2022/07/12 01:33:00;;;;;;;2.17;1.80;;;19.40;64.50;;;;;;5031247;28;20048;-72
2022/07/12 01:35:27;;;;;;;2.55;2.00;;;20.50;62.50;;;;;;5048362;28;20141;-72
2022/07/12 01:37:54;;;;;;;2.33;2.13;;;20.50;62.50;;;;;;5048529;28;20088;-72
2022/07/12 01:40:22;;;;;;;2.05;1.85;;;19.90;64.70;;;;;;5049531;28;20053;-72
2022/07/12 01:42:50;;;;;;;2.00;1.80;;;20.50;62.50;;;;;;5047678;28;20128;-72
2022/07/12 01:45:17;;;;;;;2.28;2.00;;;20.50;62.50;;;;;;5012487;28;20510;-72
2022/07/12 01:47:45;;;;;;;1.92;1.73;;;20.50;62.60;;;;;;5028130;28;20486;-72
2022/07/12 01:50:11;;;;;;;2.35;2.15;;;20.50;62.50;;;;;;5037073;28;20127;-72
2022/07/12 01:52:40;;;;;;;2.15;1.88;;;20.50;62.50;;;;;;5048022;28;20147;-72
2022/07/12 01:55:07;;;;;;;2.67;1.90;;;20.50;62.50;;;;;;5049146;28;20494;-72
2022/07/12 01:57:36;;;;;;;2.40;2.00;;;20.50;64.90;;;;;;5048198;28;20064;-72
2022/07/12 02:00:04;;;;;;;5.15;2.10;;;20.50;65.00;;;;;;5048124;28;20131;-72
2022/07/12 02:02:31;;;;;;;2.35;1.95;;;20.40;62.50;;;;;;5047738;28;20500;-72
2022/07/12 02:04:59;;;;;;;2.08;1.88;;;20.50;62.60;;;;;;5049026;28;20041;-72
2022/07/12 02:07:25;;;;;;;2.60;2.00;;;20.40;62.50;;;;;;5048172;28;20079;-72
2022/07/12 02:09:53;;;;;;;1.90;1.65;;;20.50;64.60;;;;;;5047567;28;20151;-72
2022/07/12 02:12:19;;;;;;;2.20;1.98;;;20.50;65.10;;;;;;5047862;28;20059;-72
2022/07/12 02:14:47;;;;;;;2.22;2.03;;;20.40;62.50;;;;;;5047648;28;20413;-72
2022/07/12 02:17:14;;;;;;;3.60;2.03;;;20.40;62.50;;;;;;5047589;28;20053;-72
2022/07/12 02:19:41;;;;;;;2.03;1.80;;;20.70;63.10;;;;;;5047410;28;20481;-72
2022/07/12 02:22:07;;;;;;;2.67;2.10;;;20.40;62.60;;;;;;5048812;28;20135;-72
2022/07/12 02:24:34;;;;;;;2.40;2.20;;;20.40;62.60;;;;;;5047907;28;20063;-72
2022/07/12 02:27:01;;;;;;;2.47;2.20;;;20.40;62.50;;;;;;5047622;28;20128;-72
2022/07/12 02:29:27;;;;;;;2.45;2.05;;;20.40;62.60;;;;;;5048924;28;20057;-72
2022/07/12 02:31:56;;;;;;;2.13;1.92;;;20.40;62.50;;;;;;5047131;28;20076;-72
2022/07/12 02:34:22;;;;;;;2.30;2.10;;;20.40;62.50;;;;;;5047577;28;20049;-72
2022/07/12 02:36:52;;;;;;;2.10;1.90;;;20.40;62.50;;;;;;5048722;28;20529;-72
2022/07/12 02:39:19;;;;;;;2.20;2.00;;;20.40;62.50;;;;;;5047537;28;20056;-72
2022/07/12 02:41:45;;;;;;;2.75;2.00;;;20.40;62.50;;;;;;5047548;28;20624;-72
2022/07/12 02:44:13;;;;;;;2.70;2.30;;;20.40;62.50;;;;;;5047503;28;20084;-72
2022/07/12 02:46:39;;;;;;;2.58;2.30;;;20.30;64.70;;;;;;5046917;28;20053;-72
2022/07/12 02:49:08;;;;;;;2.25;2.05;;;20.30;62.50;;;;;;5047097;28;20613;-72
2022/07/12 02:51:35;;;;;;;2.55;2.20;;;20.40;62.50;;;;;;5047263;28;20128;-72
2022/07/12 02:54:02;;;;;;;2.30;1.92;;;20.40;62.50;;;;;;5047232;28;20045;-72
2022/07/12 02:56:29;;;;;;;2.28;2.08;;;20.40;64.80;;;;;;5047226;28;20049;-72
2022/07/12 02:58:56;;;;;;;2.40;2.08;;;20.40;62.60;;;;;;5047206;28;20048;-72
2022/07/12 03:01:23;;;;;;;2.50;2.17;;;20.40;62.60;;;;;;5046727;28;20053;-72
2022/07/12 03:03:49;;;;;;;2.25;2.05;;;20.40;62.60;;;;;;5047008;28;20589;-72
2022/07/12 03:06:18;;;;;;;2.00;1.80;;;20.40;62.60;;;;;;5047143;28;20136;-72
2022/07/12 03:08:45;;;;;;;2.70;2.22;;;20.40;62.60;;;;;;5030743;28;20056;-72
2022/07/12 03:11:11;;;;;;;2.38;2.00;;;20.30;62.50;;;;;;5047070;28;20422;-72
2022/07/12 03:13:38;;;;;;;2.70;2.03;;;20.30;62.50;;;;;;5047200;28;20061;-72
2022/07/12 03:16:07;;;;;;;2.30;2.10;;;20.30;62.50;;;;;;5047472;28;20056;-72
2022/07/12 03:18:33;;;;;;;2.50;2.20;;;20.30;62.50;;;;;;5047948;28;20126;-72
2022/07/12 03:21:00;;;;;;;2.83;2.10;;;20.40;62.60;;;;;;5046841;28;20087;-72
2022/07/12 03:23:28;;;;;;;2.97;2.47;;;20.30;62.50;;;;;;5046756;28;20538;-72
2022/07/12 03:25:55;;;;;;;2.40;2.20;;;20.40;62.60;;;;;;5047326;28;20044;-72
2022/07/12 03:28:22;;;;;;;2.85;2.35;;;20.30;62.60;;;;;;5047293;28;20677;-72
2022/07/12 03:30:48;;;;;;;2.42;2.08;;;20.30;62.50;;;;;;5050070;28;20049;-72
2022/07/12 03:33:15;;;;;;;2.28;2.08;;;20.30;62.50;;;;;;5051671;28;20049;-72
2022/07/12 03:35:42;;;;;;;2.85;2.25;;;18.40;61.50;;;;;;5050586;28;20059;-72
2022/07/12 03:38:09;;;;;;;2.45;2.22;;;20.30;62.50;;;;;;5051933;28;20052;-72
2022/07/12 03:40:37;;;;;;;3.20;2.10;;;20.30;62.60;;;;;;5050827;28;20060;-72
2022/07/12 03:43:04;;;;;;;2.53;2.10;;;20.30;62.50;;;;;;5050581;28;20049;-72
2022/07/12 03:45:31;;;;;;;4.03;2.25;;;20.30;62.60;;;;;;5050581;28;20061;-72
2022/07/12 03:47:57;;;;;;;2.35;2.10;;;20.30;62.60;;;;;;5051681;28;20044;-72
2022/07/12 03:50:24;;;;;;;2.40;2.00;;;20.30;62.60;;;;;;5050845;28;20057;-72
2022/07/12 03:52:51;;;;;;;2.63;2.17;;;20.30;62.60;;;;;;5050385;28;20049;-72
2022/07/12 03:55:18;;;;;;;2.20;1.98;;;20.30;62.60;;;;;;5051660;28;20053;-72
2022/07/12 03:57:46;;;;;;;2.42;2.20;;;20.30;62.60;;;;;;5050745;28;20064;-72
2022/07/12 04:00:14;;;;;;;2.45;2.15;;;20.30;62.60;;;;;;5049389;28;20428;-72
2022/07/12 04:02:41;;;;;;;2.83;2.40;;;20.20;62.50;;;;;;5050053;28;20124;-72
2022/07/12 04:05:08;;;;;;;2.47;2.20;;;20.30;62.60;;;;;;5050219;28;20144;-72
2022/07/12 04:07:35;;;;;;;2.10;1.90;;;20.30;62.60;;;;;;5050394;28;20052;-71
2022/07/12 04:10:02;;;;;;;2.38;2.17;;;20.20;62.50;;;;;;5050476;28;20059;-72
2022/07/12 04:12:29;;;;;;;2.30;2.10;;;20.30;62.60;;;;;;5049833;28;20467;-72
2022/07/12 04:14:57;;;;;;;2.47;2.15;;;20.30;62.60;;;;;;5049972;28;20139;-72
2022/07/12 04:17:24;;;;;;;2.58;2.25;;;20.30;62.60;;;;;;5050238;28;20059;-72
2022/07/12 04:19:51;;;;;;;2.60;2.10;;;20.30;62.60;;;;;;5051338;28;20267;-72
2022/07/12 04:22:17;;;;;;;2.58;2.38;;;20.20;62.50;;;;;;5050106;28;20132;-72
2022/07/12 04:24:44;;;;;;;2.53;2.08;;;20.20;62.50;;;;;;5049820;28;20132;-72
2022/07/12 04:27:11;;;;;;;2.50;2.30;;;20.30;62.60;;;;;;5050223;28;20053;-72
2022/07/12 04:29:38;;;;;;;2.53;2.13;;;20.50;63.20;;;;;;5049651;28;20299;-72
2022/07/12 04:32:08;;;;;;;2.90;2.60;;;20.20;62.50;;;;;;5050071;28;20069;-72
2022/07/12 04:34:35;;;;;;;2.40;2.20;;;20.20;62.50;;;;;;5066369;28;20131;-72
2022/07/12 04:37:01;;;;;;;3.58;2.35;;;20.20;65.00;;;;;;5033306;28;20103;-72
2022/07/12 04:39:28;;;;;;;3.20;2.10;;;20.30;62.60;;;;;;5049480;28;20087;-72
2022/07/12 04:41:55;;;;;;;2.10;1.83;;;20.30;62.60;;;;;;5049447;28;20060;-72
2022/07/12 04:44:21;;;;;;;2.60;2.40;;;20.20;62.50;;;;;;5049147;28;20611;-71
2022/07/12 04:46:48;;;;;;;2.20;2.00;;;20.30;62.70;;;;;;5032691;28;20568;-71
2022/07/12 04:49:16;;;;;;;2.58;2.20;;;20.30;62.60;;;;;;5049711;28;20055;-71
2022/07/12 04:51:45;;;;;;;2.42;2.22;;;20.20;62.50;;;;;;5049356;28;20055;-71
2022/07/12 04:54:12;;;;;;;2.85;2.05;;;20.30;62.60;;;;;;5049415;28;20110;-72
2022/07/12 04:56:39;;;;;;;2.38;2.17;;;20.20;62.50;;;;;;5046855;28;20085;-72
2022/07/12 04:59:05;;;;;;;2.10;1.90;;;20.30;62.50;;;;;;5049188;28;20059;-72
2022/07/12 05:01:33;;;;;;;2.30;2.03;;;20.30;62.50;;;;;;5048764;28;20060;-72
2022/07/12 05:03:59;;;;;;;2.05;1.83;;;20.30;62.50;;;;;;5029906;28;20124;-72
2022/07/12 05:06:28;;;;;;;2.50;2.20;;;20.30;62.50;;;;;;5048861;28;20083;-72
2022/07/12 05:08:55;;;;;;;2.20;2.00;;;20.40;62.50;;;;;;5048883;28;20146;-72
2022/07/12 05:11:22;;;;;;;2.25;2.05;;;20.20;62.40;;;;;;5048885;28;20422;-72
2022/07/12 05:13:49;;;;;;;2.50;2.20;;;20.30;62.40;;;;;;5048900;28;20053;-71
2022/07/12 05:16:16;;;;;;;2.55;2.20;;;20.30;62.40;;;;;;5048729;28;20087;-71
2022/07/12 05:18:42;;;;;;;2.25;2.05;;;20.30;62.40;;;;;;5032301;28;20057;-71
2022/07/12 05:21:09;;;;;;;2.25;1.92;;;20.30;62.40;;;;;;5048701;28;20059;-71
2022/07/12 05:23:37;;;;;;;2.25;2.00;;;20.30;62.40;;;;;;5049485;28;20136;-71
2022/07/12 05:26:04;;;;;;;2.40;2.20;;;20.30;62.40;;;;;;5048671;28;20139;-71
2022/07/12 05:28:31;;;;;;;2.38;2.15;;;20.30;62.40;;;;;;5064881;28;20558;-71
2022/07/12 05:30:57;;;;;;;2.35;2.15;;;20.30;62.40;;;;;;5048518;28;20053;-72
2022/07/12 05:33:24;;;;;;;2.47;2.28;;;20.50;65.30;;;;;;5048230;28;20127;-72
2022/07/12 05:35:52;;;;;;;2.67;2.40;;;20.30;62.30;;;;;;5048541;28;20059;-72
2022/07/12 05:38:19;;;;;;;2.50;2.30;;;20.40;64.50;;;;;;5046059;28;20056;-72
2022/07/12 05:40:47;;;;;;;2.20;2.00;;;20.40;62.20;;;;;;5048231;28;20051;-72
2022/07/12 05:43:14;;;;;;;2.90;2.30;;;20.40;62.20;;;;;;5047801;28;20127;-72
2022/07/12 05:45:42;;;;;;;2.50;2.30;;;20.50;64.80;;;;;;5048434;28;20128;-72
2022/07/12 05:48:09;;;;;;;2.55;2.35;;;20.50;62.20;;;;;;5048510;28;20052;-72
2022/07/12 05:50:35;;;;;;;2.33;2.13;;;20.60;62.20;;;;;;5048069;28;20067;-72
2022/07/12 05:55:48;;;;;;;2.60;2.40;;;20.50;62.10;;;;;;5046471;28;20128;-71
2022/07/12 05:58:15;;;;;;;2.38;2.15;;;20.50;62.10;;;;;;5047855;28;20049;-72
2022/07/12 06:00:42;;;;;;;2.10;1.85;;;20.50;62.10;;;;;;5048891;28;20588;-72
2022/07/12 06:03:09;;;;;;;2.58;2.03;;;20.50;62.00;;;;;;5047636;28;20445;-72
2022/07/12 06:05:36;;;;;;;2.55;2.35;;;20.50;62.00;;;;;;5048334;28;20136;-72
2022/07/12 06:08:02;;;;;;;2.65;2.45;;;20.50;62.00;;;;;;5048017;28;20409;-72
2022/07/12 06:10:29;;;;;;;2.38;2.10;;;20.60;62.10;;;;;;5047644;28;20139;-72
2022/07/12 06:12:57;;;;;;;2.38;2.17;;;20.60;62.00;;;;;;5047783;28;20087;-71
2022/07/12 06:15:25;;;;;;;2.25;2.05;;;20.50;61.90;;;;;;5047960;28;20841;-72
2022/07/12 06:17:52;;;;;;;2.60;2.22;;;20.10;64.20;;;;;;5047831;28;20053;-71
2022/07/12 06:20:18;;;;;;;2.20;2.00;;;20.60;62.00;;;;;;5047826;28;20492;-71
2022/07/12 06:22:45;;;;;;;2.20;2.00;;;20.60;62.00;;;;;;5047518;28;20124;-72
2022/07/12 06:25:12;;;;;;;2.30;2.10;;;20.60;61.90;;;;;;5047549;28;20048;-71
2022/07/12 06:27:39;;;;;;;2.10;1.90;;;20.60;61.90;;;;;;5047553;28;20529;-72
2022/07/12 06:30:08;;;;;;;2.92;2.40;;;20.60;61.90;;;;;;5047467;28;20131;-71
2022/07/12 06:32:35;;;;;;;2.38;2.10;;;20.60;61.90;;;;;;5064356;28;20048;-71
2022/07/12 06:35:01;;;;;;;2.47;2.20;;;20.70;61.90;;;;;;5047598;28;20434;-72
2022/07/12 06:37:28;;;;;;;2.63;2.40;;;20.70;61.90;;;;;;5047768;28;20057;-72
2022/07/12 06:39:55;;;;;;;2.50;2.30;;;21.00;62.80;;;;;;5047184;28;20057;-72
2022/07/12 06:42:22;;;;;;;2.33;2.13;;;20.70;61.80;;;;;;5047643;28;20636;-72
2022/07/12 06:44:48;;;;;;;2.70;2.10;;;20.80;61.80;;;;;;5047238;28;20056;-72
2022/07/12 06:47:17;;;;;;;2.10;1.90;;;21.00;61.90;;;;;;5048348;28;20417;-72
2022/07/12 06:49:43;;;;;;;2.40;2.20;;;20.10;61.70;;;;;;5047311;28;20053;-72
2022/07/12 06:52:10;;;;;;;2.42;2.22;;;20.90;64.20;;;;;;5047207;28;20132;-72
2022/07/12 06:54:37;;;;;;;2.33;2.00;;;20.80;61.60;;;;;;5046915;28;20053;-72
2022/07/12 06:57:04;;;;;;;2.25;2.05;;;20.80;61.60;;;;;;5047644;28;20135;-73
2022/07/12 06:59:31;;;;;;;1.98;1.83;;;20.90;63.90;;;;;;5047694;28;20139;-72
2022/07/12 07:01:58;;;;;;;2.20;2.00;;;20.90;61.60;;;;;;5047924;28;20572;-72
2022/07/12 07:04:26;;;;;;;2.15;1.95;;;20.90;64.20;;;;;;5048216;28;20073;-72
2022/07/12 07:06:53;;;;;;;2.40;2.20;;;21.00;63.80;;;;;;5052374;28;20067;-72
2022/07/12 07:09:20;;;;;;;2.28;2.08;;;21.00;61.60;;;;;;5052157;28;20055;-73
2022/07/12 07:11:47;;;;;;;2.70;2.20;;;21.00;61.40;;;;;;5050930;28;20057;-72
2022/07/12 07:14:13;;;;;;;2.45;2.25;;;21.10;63.50;;;;;;5052144;28;20120;-72
2022/07/12 07:16:40;;;;;;;2.15;1.90;;;21.10;61.30;;;;;;5051026;28;20128;-71
2022/07/12 07:19:07;;;;;;;2.35;1.80;;;21.20;61.30;;;;;;5051282;28;20052;-71
2022/07/12 07:21:35;;;;;;;2.58;2.20;;;21.20;61.20;;;;;;5068041;28;20090;-72
2022/07/12 07:24:02;;;;;;;3.08;2.00;;;21.20;63.70;;;;;;5050989;28;20053;-71
2022/07/12 07:26:29;;;;;;;2.10;1.90;;;21.30;61.00;;;;;;5051306;28;20064;-72
2022/07/12 07:31:41;;;;;;;2.20;2.00;;;21.70;63.10;;;;;;5052359;28;20037;-71
2022/07/12 07:34:08;;;;;;;2.80;2.00;;;21.60;63.50;;;;;;5050851;28;20122;-71
2022/07/12 07:36:36;;;;;;;2.20;2.00;;;21.50;60.80;;;;;;5052414;28;20472;-71
2022/07/12 07:39:02;;;;;;;2.55;2.08;;;21.60;60.70;;;;;;5051004;28;20057;-72
2022/07/12 07:41:29;;;;;;;2.30;1.95;;;21.60;60.60;;;;;;5051427;28;20053;-72
2022/07/12 07:43:56;;;;;;;2.20;1.88;;;21.70;60.60;;;;;;5050852;28;20737;-72
2022/07/12 07:46:23;;;;;;;3.13;2.15;;;21.70;60.50;;;;;;5050727;28;20059;-71
2022/07/12 07:48:49;;;;;;;2.22;2.03;;;21.80;60.40;;;;;;5050605;28;20136;-76
2022/07/12 07:51:16;;;;;;;2.60;2.20;;;21.80;60.30;;;;;;5050369;28;20055;-72
2022/07/12 07:53:44;;;;;;;2.58;2.30;;;21.90;60.30;;;;;;5049906;28;20048;-72
2022/07/12 07:56:11;;;;;;;2.78;2.15;;;21.90;60.30;;;;;;5052070;28;20324;-72
2022/07/12 07:58:38;;;;;;;2.35;1.90;;;22.00;60.30;;;;;;5051803;28;20402;-72
2022/07/12 08:01:05;;;;;;;5.93;2.40;;;22.00;60.10;;;;;;5050935;28;20128;-72
2022/07/12 08:03:31;;;;;;;9.10;2.75;;;22.10;60.10;;;;;;5049993;28;20045;-72
2022/07/12 08:06:00;;;;;;;3.42;2.38;;;22.20;60.10;;;;;;5051502;28;20131;-72
2022/07/12 08:08:27;;;;;;;2.67;2.10;;;22.10;59.90;;;;;;5049333;28;20053;-72
2022/07/12 08:10:55;;;;;;;2.65;2.10;;;22.20;59.90;;;;;;5051779;28;20087;-72
2022/07/12 08:13:22;;;;;;;2.30;1.95;;;22.40;60.00;;;;;;5049735;28;20127;-72
2022/07/12 08:15:48;;;;;;;3.83;1.88;;;23.80;63.70;;;;;;5050829;28;20521;-72
2022/07/12 08:18:15;;;;;;;2.40;1.80;;;22.40;59.80;;;;;;5050075;28;20080;-72
2022/07/12 08:20:42;;;;;;;3.15;1.90;;;22.50;59.70;;;;;;5050708;28;20041;-72
2022/07/12 08:23:09;;;;;;;2.45;1.70;;;22.50;59.60;;;;;;5049926;28;20055;-72
2022/07/12 08:25:35;;;;;;;2.33;1.77;;;22.60;59.50;;;;;;5049701;28;20132;-72
2022/07/12 08:28:04;;;;;;;3.53;2.00;;;22.40;62.00;;;;;;5050194;28;20128;-72
2022/07/12 08:30:31;;;;;;;2.90;1.80;;;22.80;59.50;;;;;;5049930;28;20067;-72
2022/07/12 08:32:57;;;;;;;3.65;1.70;;;23.00;61.50;;;;;;5049962;28;20060;-72
2022/07/12 08:35:24;;;;;;;3.58;1.90;;;22.90;59.40;;;;;;5048702;28;20064;-72
2022/07/12 08:37:51;;;;;;;3.47;2.20;;;22.90;59.30;;;;;;5049769;28;20057;-71
2022/07/12 08:40:18;;;;;;;4.63;1.83;;;23.00;59.30;;;;;;5049896;28;20140;-71
2022/07/12 08:42:47;;;;;;;5.10;1.75;;;23.00;59.40;;;;;;5049925;28;20060;-71
2022/07/12 08:45:15;;;;;;;2.95;1.92;;;23.00;59.30;;;;;;5049469;28;20049;-72
2022/07/12 08:47:42;;;;;;;2.45;1.70;;;23.10;59.30;;;;;;5049689;28;20056;-72
2022/07/12 08:50:17;;;;;;;3.17;1.75;;;23.10;59.20;;;;;;5050164;28;20051;-72
2022/07/12 08:52:45;;;;;;;2.67;1.92;;;23.10;59.30;;;;;;5049368;28;20064;-71
2022/07/12 08:55:19;;;;;;;2.35;1.80;;;23.20;59.20;;;;;;5048685;28;20052;-72
2022/07/12 08:57:46;;;;;;;13.65;5.47;;;23.20;59.20;;;;;;5050375;28;20041;-72
2022/07/12 09:00:15;;;;;;;16.70;8.05;;;23.20;59.30;;;;;;5049217;28;20057;-71
2022/07/12 09:02:46;;;;;;;19.90;8.35;;;23.20;59.40;;;;;;5049038;28;20518;-71
2022/07/12 09:05:13;;;;;;;13.70;7.07;;;23.30;59.60;;;;;;5049404;28;20056;-71
2022/07/12 09:07:40;;;;;;;13.40;6.95;;;23.30;59.60;;;;;;5049020;28;20075;-71
2022/07/12 09:10:07;;;;;;;15.98;6.95;;;23.30;59.60;;;;;;5049357;28;20091;-71
2022/07/12 09:12:34;;;;;;;13.02;6.75;;;23.30;59.50;;;;;;5048999;28;20613;-71
2022/07/12 09:15:16;;;;;;;13.65;6.15;;;23.30;59.50;;;;;;5048529;28;20056;-71
2022/07/12 09:17:48;;;;;;;11.50;5.90;;;23.30;59.60;;;;;;5049008;28;20049;-71
2022/07/12 09:20:16;;;;;;;10.55;5.60;;;23.40;59.60;;;;;;5049017;28;20053;-71
2022/07/12 09:22:48;;;;;;;9.85;5.00;;;23.40;59.50;;;;;;5050104;28;20124;-71
2022/07/12 09:25:17;;;;;;;10.57;5.53;;;23.40;59.50;;;;;;5046131;28;20065;-71
2022/07/12 09:27:48;;;;;;;10.52;5.30;;;23.40;59.40;;;;;;5047188;28;20048;-71
2022/07/12 09:30:16;;;;;;;9.68;5.20;;;23.50;59.50;;;;;;5049729;28;20528;-71
2022/07/12 09:38:32;;;;;;;;;;;23.50;59.30;;;;;;4991412;28;20050;-71
2022/07/12 09:40:59;;;;;;;8.73;4.50;;;23.50;59.70;;;;;;5034034;28;19920;-72
2022/07/12 09:43:26;;;;;;;9.63;4.35;;;23.50;59.30;;;;;;5048710;28;20063;-71
2022/07/12 09:45:54;;;;;;;7.47;4.43;;;23.50;59.20;;;;;;5038469;28;20060;-71
2022/07/12 09:48:21;;;;;;;7.78;4.00;;;23.50;59.20;;;;;;5035833;28;20049;-72
2022/07/12 09:50:49;;;;;;;9.48;4.65;;;23.60;59.30;;;;;;5047995;28;20128;-70
2022/07/12 09:53:22;;;;;;;6.82;4.05;;;23.60;59.30;;;;;;5047800;28;20132;-71
2022/07/12 09:55:50;;;;;;;12.18;4.07;;;23.60;59.40;;;;;;5048060;28;20053;-71
2022/07/12 09:58:22;;;;;;;6.18;3.45;;;23.50;59.30;;;;;;5028270;28;20508;-71
2022/07/12 10:00:49;;;;;;;6.20;3.17;;;23.50;59.20;;;;;;5031010;28;20049;-71
2022/07/12 10:03:18;;;;;;;7.32;3.38;;;23.50;59.10;;;;;;5047696;28;20140;-71
2022/07/12 10:05:47;;;;;;;6.72;3.55;;;23.50;59.10;;;;;;5049503;28;20123;-71
2022/07/12 10:08:14;;;;;;;5.20;2.95;;;23.50;59.00;;;;;;5049114;28;20626;-71
2022/07/12 10:10:41;;;;;;;5.63;3.15;;;23.50;59.00;;;;;;5048133;28;20065;-71
2022/07/12 10:13:07;;;;;;;5.72;3.20;;;23.50;59.00;;;;;;5047216;28;20446;-73
2022/07/12 10:15:34;;;;;;;4.80;2.72;;;23.50;59.00;;;;;;5047045;28;20049;-71
2022/07/12 10:18:01;;;;;;;6.20;3.20;;;23.50;58.90;;;;;;5048179;28;20061;-72
2022/07/12 10:20:29;;;;;;;5.75;3.00;;;23.50;58.90;;;;;;5047364;28;20052;-71
2022/07/12 10:22:56;;;;;;;5.15;2.80;;;23.50;58.90;;;;;;5046741;28;20045;-73
2022/07/12 10:25:30;;;;;;;6.03;3.10;;;23.50;58.90;;;;;;5047288;28;20049;-72
2022/07/12 10:27:58;;;;;;;6.03;3.30;;;23.50;59.00;;;;;;5048128;28;20057;-72
2022/07/12 10:30:24;;;;;;;6.03;3.35;;;23.60;59.00;;;;;;5048913;28;20719;-72
2022/07/12 10:32:53;;;;;;;5.22;3.15;;;23.50;59.00;;;;;;5049045;28;20135;-72
2022/07/12 10:35:21;;;;;;;4.55;3.03;;;23.70;59.10;;;;;;5047351;28;20052;-72
2022/07/12 10:38:17;;;;;;;4.32;2.58;;;23.50;59.10;;;;;;5047125;28;20080;-72
2022/07/12 10:40:44;;;;;;;4.97;2.97;;;23.50;59.10;;;;;;5044695;28;20045;-73
2022/07/12 10:43:16;;;;;;;4.30;2.72;;;23.50;59.20;;;;;;5048291;28;20049;-72
2022/07/12 10:45:43;;;;;;;5.57;2.80;;;23.50;59.10;;;;;;5048021;28;20049;-72
2022/07/12 10:48:19;;;;;;;4.97;2.88;;;23.50;59.10;;;;;;5047324;28;20049;-72
2022/07/12 10:50:57;;;;;;;5.88;3.00;;;23.50;59.10;;;;;;5046551;28;20060;-72
2022/07/12 10:53:30;;;;;;;5.47;2.60;;;23.50;59.10;;;;;;5044120;28;20049;-72
2022/07/12 10:56:10;;;;;;;5.25;2.42;;;23.50;59.10;;;;;;5047178;28;20133;-72
2022/07/12 10:58:38;;;;;;;3.85;2.50;;;23.50;59.10;;;;;;5047325;28;20053;-72
2022/07/12 11:01:06;;;;;;;3.95;2.58;;;23.50;59.10;;;;;;5046768;28;20151;-72
2022/07/12 11:03:37;;;;;;;3.63;2.40;;;23.50;59.10;;;;;;5046493;28;20063;-73
2022/07/12 11:06:04;;;;;;;4.30;2.33;;;23.50;59.10;;;;;;5045554;28;20644;-71
2022/07/12 11:08:53;;;;;;;4.47;2.72;;;23.50;59.20;;;;;;5046433;28;20053;-72
2022/07/12 11:11:21;;;;;;;4.97;2.45;;;23.50;59.20;;;;;;5045795;28;20059;-72
2022/07/12 11:13:48;;;;;;;4.60;2.28;;;23.50;59.20;;;;;;5047531;28;20072;-71
2022/07/12 11:16:16;;;;;;;4.13;2.10;;;23.50;59.20;;;;;;5047011;28;20063;-71
2022/07/12 11:18:43;;;;;;;4.60;2.30;;;23.60;59.20;;;;;;5047327;28;20107;-71
2022/07/12 11:21:09;;;;;;;4.15;2.25;;;23.60;59.20;;;;;;5048291;28;20052;-72
2022/07/12 11:23:41;;;;;;;3.22;2.20;;;23.60;59.20;;;;;;5047676;28;20132;-72
2022/07/12 11:26:08;;;;;;;4.22;2.25;;;23.60;59.20;;;;;;5047398;28;20682;-72
2022/07/12 11:28:35;;;;;;;3.22;2.15;;;23.50;59.10;;;;;;5047473;28;20508;-72
2022/07/12 11:31:03;;;;;;;4.55;2.30;;;23.50;59.10;;;;;;5047417;28;20114;-72
2022/07/12 11:33:32;;;;;;;3.75;2.22;;;23.60;59.20;;;;;;5048381;28;20060;-72
2022/07/12 11:35:59;;;;;;;4.15;2.10;;;23.60;59.20;;;;;;5047511;28;20059;-72
2022/07/12 11:38:25;;;;;;;2.88;1.83;;;23.60;59.20;;;;;;5047543;28;20136;-72
2022/07/12 11:40:57;;;;;;;2.97;2.10;;;23.60;59.10;;;;;;5046247;28;20084;-71
2022/07/12 11:43:24;;;;;;;3.72;1.98;;;23.70;59.20;;;;;;5047341;28;20060;-71
2022/07/12 11:45:50;;;;;;;4.00;2.30;;;23.60;59.10;;;;;;5047101;28;20076;-71
2022/07/12 11:48:17;;;;;;;3.67;2.00;;;23.60;59.10;;;;;;5048310;28;20413;-71
2022/07/12 11:50:44;;;;;;;4.28;2.10;;;23.50;61.10;;;;;;5047909;28;20045;-71
2022/07/12 11:53:16;;;;;;;3.70;1.88;;;23.60;59.10;;;;;;5051636;28;20410;-72
2022/07/12 11:55:43;;;;;;;4.13;1.90;;;23.70;59.10;;;;;;5052013;28;20596;-72
2022/07/12 11:58:11;;;;;;;2.85;1.90;;;23.70;59.10;;;;;;5050415;28;20056;-73
2022/07/12 12:00:38;;;;;;;7.63;2.50;;;23.60;59.10;;;;;;5049364;28;20136;-74
2022/07/12 12:03:05;;;;;;;13.70;4.05;;;23.70;59.10;;;;;;5051555;28;20401;-73
2022/07/12 12:05:32;;;;;;;16.45;5.50;;;23.60;59.10;;;;;;5050460;28;20045;-72
2022/07/12 12:07:59;;;;;;;24.05;5.25;;;23.60;59.10;;;;;;5050788;28;20053;-73
2022/07/12 12:10:26;;;;;;;21.60;5.15;;;23.60;59.10;;;;;;5050338;28;20057;-73
2022/07/12 12:12:53;;;;;;;16.35;5.38;;;23.60;59.10;;;;;;5051001;28;20604;-71
2022/07/12 12:15:22;;;;;;;25.52;5.55;;;23.60;59.10;;;;;;5050591;28;20120;-71
2022/07/12 12:17:53;;;;;;;18.30;5.28;;;23.60;59.10;;;;;;5050478;28;20061;-71
2022/07/12 12:20:20;;;;;;;15.77;4.55;;;23.60;59.20;;;;;;5049814;28;20057;-71
2022/07/12 12:22:49;;;;;;;16.35;4.82;;;23.60;59.10;;;;;;5050180;28;20144;-71
2022/07/12 12:25:16;;;;;;;13.98;4.63;;;23.60;59.20;;;;;;5050235;28;20056;-71
2022/07/12 12:27:46;;;;;;;13.98;4.80;;;23.60;59.20;;;;;;5050145;28;20156;-71
2022/07/12 12:30:13;;;;;;;13.85;4.60;;;23.60;59.20;;;;;;5049958;28;20063;-71
2022/07/12 12:32:52;;;;;;;14.80;4.28;;;23.70;59.20;;;;;;5051085;28;20049;-71
2022/07/12 12:35:20;;;;;;;14.55;4.43;;;23.70;59.20;;;;;;5049560;28;20123;-71
2022/07/12 12:37:54;;;;;;;10.98;3.60;;;23.70;59.20;;;;;;5050967;28;20056;-71
2022/07/12 12:40:21;;;;;;;12.48;3.45;;;23.70;59.20;;;;;;5066609;28;20644;-71
2022/07/12 12:42:48;;;;;;;8.80;3.60;;;23.60;59.20;;;;;;5051053;28;20048;-71
2022/07/12 12:45:22;;;;;;;8.15;2.83;;;23.60;59.30;;;;;;5049261;28;20053;-71
2022/07/12 12:47:55;;;;;;;11.65;3.22;;;23.60;59.30;;;;;;5049546;28;20061;-71
2022/07/12 12:50:41;;;;;;;7.65;2.97;;;23.60;59.30;;;;;;5043768;28;20149;-71
2022/07/12 12:53:12;;;;;;;7.15;3.15;;;23.70;59.40;;;;;;5029334;28;20053;-71
2022/07/12 12:55:39;;;;;;;5.97;3.00;;;23.60;59.30;;;;;;5049619;28;20127;-71
2022/07/12 12:58:06;;;;;;;7.20;3.00;;;23.60;59.30;;;;;;5050427;28;20041;-71
2022/07/12 13:00:32;;;;;;;6.70;3.13;;;23.60;59.50;;;;;;5049123;28;20084;-71